sensor_id;sensor_type;location;lat;lon;timestamp;temperature;humidity
27534;DHT22;14973;51.460;7.008;2023-04-24T00:01:10;11.50;1.00
27534;DHT22;14973;51.460;7.008;2023-04-24T00:03:36;11.40;1.00
27534;DHT22;14973;51.460;7.008;2023-04-24T00:06:02;11.50;99.90
27534;DHT22;14973;51.460;7.008;2023-04-24T00:08:28;11.50;99.90
27534;DHT22;14973;51.460;7.008;2023-04-24T00:10:53;11.50;99.90
27534;DHT22;14973;51.460;7.008;2023-04-24T00:13:18;11.50;99.90
27534;DHT22;14973;51.460;7.008;2023-04-24T00:15:44;11.50;99.90
27534;DHT22;14973;51.460;7.008;2023-04-24T00:18:10;11.50;99.90
27534;DHT22;14973;51.460;7.008;2023-04-24T00:20:35;11.40;1.00
27534;DHT22;14973;51.460;7.008;2023-04-24T00:23:01;11.40;1.00
27534;DHT22;14973;51.460;7.008;2023-04-24T00:25:26;11.20;1.00
27534;DHT22;14973;51.460;7.008;2023-04-24T00:27:52;11.30;1.00
27534;DHT22;14973;51.460;7.008;2023-04-24T00:30:17;11.30;99.90
27534;DHT22;14973;51.460;7.008;2023-04-24T00:32:43;11.30;99.90
27534;DHT22;14973;51.460;7.008;2023-04-24T00:35:08;11.30;99.90
27534;DHT22;14973;51.460;7.008;2023-04-24T00:37:33;11.20;99.90
27534;DHT22;14973;51.460;7.008;2023-04-24T00:39:59;11.10;99.90
27534;DHT22;14973;51.460;7.008;2023-04-24T00:42:25;11.10;1.00
27534;DHT22;14973;51.460;7.008;2023-04-24T00:44:51;11.10;1.00
27534;DHT22;14973;51.460;7.008;2023-04-24T00:47:16;11.00;1.00
27534;DHT22;14973;51.460;7.008;2023-04-24T00:49:42;11.00;1.00
27534;DHT22;14973;51.460;7.008;2023-04-24T00:52:07;10.90;1.00
27534;DHT22;14973;51.460;7.008;2023-04-24T00:54:34;10.80;1.00
27534;DHT22;14973;51.460;7.008;2023-04-24T00:57:00;10.70;1.00
27534;DHT22;14973;51.460;7.008;2023-04-24T00:59:26;10.60;1.00
27534;DHT22;14973;51.460;7.008;2023-04-24T01:01:52;10.60;1.00
27534;DHT22;14973;51.460;7.008;2023-04-24T01:04:17;10.50;1.00
27534;DHT22;14973;51.460;7.008;2023-04-24T01:06:43;10.40;1.00
27534;DHT22;14973;51.460;7.008;2023-04-24T01:09:09;10.30;1.00
27534;DHT22;14973;51.460;7.008;2023-04-24T01:11:36;10.30;1.00
27534;DHT22;14973;51.460;7.008;2023-04-24T01:14:02;10.40;1.00
27534;DHT22;14973;51.460;7.008;2023-04-24T01:16:27;10.40;1.00
27534;DHT22;14973;51.460;7.008;2023-04-24T01:18:53;10.50;1.00
27534;DHT22;14973;51.460;7.008;2023-04-24T01:21:18;10.50;1.00
27534;DHT22;14973;51.460;7.008;2023-04-24T01:23:46;10.40;1.00
27534;DHT22;14973;51.460;7.008;2023-04-24T01:26:13;10.30;1.00
27534;DHT22;14973;51.460;7.008;2023-04-24T01:28:38;10.30;1.00
27534;DHT22;14973;51.460;7.008;2023-04-24T01:31:04;10.20;6.70
27534;DHT22;14973;51.460;7.008;2023-04-24T01:33:30;10.20;9.80
27534;DHT22;14973;51.460;7.008;2023-04-24T01:35:55;10.10;20.40
27534;DHT22;14973;51.460;7.008;2023-04-24T01:38:21;10.10;25.20
27534;DHT22;14973;51.460;7.008;2023-04-24T01:40:47;10.00;26.40
27534;DHT22;14973;51.460;7.008;2023-04-24T01:43:13;10.00;32.20
27534;DHT22;14973;51.460;7.008;2023-04-24T01:45:38;9.90;29.50
27534;DHT22;14973;51.460;7.008;2023-04-24T01:48:07;9.90;35.30
27534;DHT22;14973;51.460;7.008;2023-04-24T01:50:32;9.80;43.10
27534;DHT22;14973;51.460;7.008;2023-04-24T01:52:58;9.80;31.50
27534;DHT22;14973;51.460;7.008;2023-04-24T01:55:23;9.70;45.20
27534;DHT22;14973;51.460;7.008;2023-04-24T01:57:50;9.70;56.70
27534;DHT22;14973;51.460;7.008;2023-04-24T02:00:17;9.60;62.60
27534;DHT22;14973;51.460;7.008;2023-04-24T02:02:42;9.50;68.60
27534;DHT22;14973;51.460;7.008;2023-04-24T02:05:08;9.50;65.10
27534;DHT22;14973;51.460;7.008;2023-04-24T02:07:34;9.50;59.50
27534;DHT22;14973;51.460;7.008;2023-04-24T02:09:59;9.50;58.90
27534;DHT22;14973;51.460;7.008;2023-04-24T02:12:25;9.40;56.30
27534;DHT22;14973;51.460;7.008;2023-04-24T02:14:50;9.50;44.90
27534;DHT22;14973;51.460;7.008;2023-04-24T02:17:16;9.50;41.00
27534;DHT22;14973;51.460;7.008;2023-04-24T02:19:42;9.50;32.90
27534;DHT22;14973;51.460;7.008;2023-04-24T02:22:07;9.50;27.80
27534;DHT22;14973;51.460;7.008;2023-04-24T02:24:33;9.60;24.30
27534;DHT22;14973;51.460;7.008;2023-04-24T02:26:58;9.60;20.60
27534;DHT22;14973;51.460;7.008;2023-04-24T02:29:24;9.60;16.70
27534;DHT22;14973;51.460;7.008;2023-04-24T02:31:49;9.60;17.20
27534;DHT22;14973;51.460;7.008;2023-04-24T02:34:15;9.60;24.70
27534;DHT22;14973;51.460;7.008;2023-04-24T02:36:41;9.60;26.70
27534;DHT22;14973;51.460;7.008;2023-04-24T02:39:07;9.60;25.00
27534;DHT22;14973;51.460;7.008;2023-04-24T02:41:32;9.50;29.10
27534;DHT22;14973;51.460;7.008;2023-04-24T02:43:58;9.60;30.60
27534;DHT22;14973;51.460;7.008;2023-04-24T02:46:23;9.60;29.10
27534;DHT22;14973;51.460;7.008;2023-04-24T02:48:49;9.60;27.90
27534;DHT22;14973;51.460;7.008;2023-04-24T02:51:14;9.60;26.10
27534;DHT22;14973;51.460;7.008;2023-04-24T02:53:40;9.60;29.20
27534;DHT22;14973;51.460;7.008;2023-04-24T02:56:05;9.60;35.50
27534;DHT22;14973;51.460;7.008;2023-04-24T02:58:31;9.60;35.30
27534;DHT22;14973;51.460;7.008;2023-04-24T03:00:56;9.60;37.00
27534;DHT22;14973;51.460;7.008;2023-04-24T03:03:22;9.60;35.60
27534;DHT22;14973;51.460;7.008;2023-04-24T03:05:49;9.60;31.90
27534;DHT22;14973;51.460;7.008;2023-04-24T03:08:14;9.60;36.80
27534;DHT22;14973;51.460;7.008;2023-04-24T03:10:42;9.70;28.60
27534;DHT22;14973;51.460;7.008;2023-04-24T03:13:07;9.70;25.20
27534;DHT22;14973;51.460;7.008;2023-04-24T03:15:33;9.70;22.90
27534;DHT22;14973;51.460;7.008;2023-04-24T03:17:58;9.80;20.40
27534;DHT22;14973;51.460;7.008;2023-04-24T03:20:24;9.80;23.50
27534;DHT22;14973;51.460;7.008;2023-04-24T03:22:49;9.70;19.00
27534;DHT22;14973;51.460;7.008;2023-04-24T03:25:15;9.80;18.40
27534;DHT22;14973;51.460;7.008;2023-04-24T03:27:40;9.80;17.80
27534;DHT22;14973;51.460;7.008;2023-04-24T03:30:07;9.70;17.00
27534;DHT22;14973;51.460;7.008;2023-04-24T03:32:32;9.80;19.30
27534;DHT22;14973;51.460;7.008;2023-04-24T03:34:58;9.90;17.00
27534;DHT22;14973;51.460;7.008;2023-04-24T03:37:23;9.90;13.80
27534;DHT22;14973;51.460;7.008;2023-04-24T03:39:49;9.90;7.40
27534;DHT22;14973;51.460;7.008;2023-04-24T03:42:14;9.90;12.60
27534;DHT22;14973;51.460;7.008;2023-04-24T03:44:40;9.90;8.30
27534;DHT22;14973;51.460;7.008;2023-04-24T03:47:05;9.80;15.70
27534;DHT22;14973;51.460;7.008;2023-04-24T03:49:31;9.90;7.00
27534;DHT22;14973;51.460;7.008;2023-04-24T03:51:57;9.90;8.40
27534;DHT22;14973;51.460;7.008;2023-04-24T03:54:22;9.90;6.00
27534;DHT22;14973;51.460;7.008;2023-04-24T03:56:48;9.90;2.10
27534;DHT22;14973;51.460;7.008;2023-04-24T03:59:13;9.90;1.10
27534;DHT22;14973;51.460;7.008;2023-04-24T04:01:38;10.00;1.00
27534;DHT22;14973;51.460;7.008;2023-04-24T04:04:05;9.90;2.50
27534;DHT22;14973;51.460;7.008;2023-04-24T04:06:30;9.90;1.00
27534;DHT22;14973;51.460;7.008;2023-04-24T04:08:56;9.90;1.00
27534;DHT22;14973;51.460;7.008;2023-04-24T04:11:22;9.90;1.00
27534;DHT22;14973;51.460;7.008;2023-04-24T04:13:47;9.90;1.00
27534;DHT22;14973;51.460;7.008;2023-04-24T04:16:13;9.90;1.00
27534;DHT22;14973;51.460;7.008;2023-04-24T04:18:39;9.90;1.00
27534;DHT22;14973;51.460;7.008;2023-04-24T04:21:04;9.90;1.00
27534;DHT22;14973;51.460;7.008;2023-04-24T04:23:30;9.80;1.00
27534;DHT22;14973;51.460;7.008;2023-04-24T04:25:55;10.00;1.00
27534;DHT22;14973;51.460;7.008;2023-04-24T04:28:21;10.00;1.00
27534;DHT22;14973;51.460;7.008;2023-04-24T04:30:46;10.00;1.00
27534;DHT22;14973;51.460;7.008;2023-04-24T04:33:12;10.00;1.00
27534;DHT22;14973;51.460;7.008;2023-04-24T04:35:38;10.00;1.00
27534;DHT22;14973;51.460;7.008;2023-04-24T04:38:03;10.00;1.00
27534;DHT22;14973;51.460;7.008;2023-04-24T04:40:29;10.00;1.00
27534;DHT22;14973;51.460;7.008;2023-04-24T04:42:55;10.00;1.00
27534;DHT22;14973;51.460;7.008;2023-04-24T04:45:21;10.00;1.00
27534;DHT22;14973;51.460;7.008;2023-04-24T04:47:46;10.00;1.00
27534;DHT22;14973;51.460;7.008;2023-04-24T04:50:12;10.00;1.00
27534;DHT22;14973;51.460;7.008;2023-04-24T04:52:38;10.00;1.00
27534;DHT22;14973;51.460;7.008;2023-04-24T04:55:04;10.00;1.00
27534;DHT22;14973;51.460;7.008;2023-04-24T04:57:30;10.00;1.00
27534;DHT22;14973;51.460;7.008;2023-04-24T04:59:56;10.00;1.00
27534;DHT22;14973;51.460;7.008;2023-04-24T05:02:21;10.10;1.00
27534;DHT22;14973;51.460;7.008;2023-04-24T05:04:46;10.10;1.00
27534;DHT22;14973;51.460;7.008;2023-04-24T05:07:12;10.00;1.00
27534;DHT22;14973;51.460;7.008;2023-04-24T05:09:37;10.00;1.00
27534;DHT22;14973;51.460;7.008;2023-04-24T05:12:03;10.00;1.00
27534;DHT22;14973;51.460;7.008;2023-04-24T05:14:29;10.00;1.00
27534;DHT22;14973;51.460;7.008;2023-04-24T05:16:54;10.00;1.00
27534;DHT22;14973;51.460;7.008;2023-04-24T05:19:20;10.00;1.00
27534;DHT22;14973;51.460;7.008;2023-04-24T05:21:45;9.90;1.00
27534;DHT22;14973;51.460;7.008;2023-04-24T05:24:11;10.00;1.00
27534;DHT22;14973;51.460;7.008;2023-04-24T05:26:36;10.00;1.00
27534;DHT22;14973;51.460;7.008;2023-04-24T05:29:02;9.90;1.00
27534;DHT22;14973;51.460;7.008;2023-04-24T05:31:28;9.90;1.00
27534;DHT22;14973;51.460;7.008;2023-04-24T05:33:53;9.80;21.70
27534;DHT22;14973;51.460;7.008;2023-04-24T05:36:19;9.70;60.10
27534;DHT22;14973;51.460;7.008;2023-04-24T05:38:44;9.60;83.40
27534;DHT22;14973;51.460;7.008;2023-04-24T05:41:10;9.50;95.70
27534;DHT22;14973;51.460;7.008;2023-04-24T05:43:35;9.40;99.90
27534;DHT22;14973;51.460;7.008;2023-04-24T05:46:01;9.30;99.90
27534;DHT22;14973;51.460;7.008;2023-04-24T05:48:26;9.30;99.90
27534;DHT22;14973;51.460;7.008;2023-04-24T05:50:52;9.20;99.90
27534;DHT22;14973;51.460;7.008;2023-04-24T05:53:18;9.20;99.90
27534;DHT22;14973;51.460;7.008;2023-04-24T05:55:43;9.20;99.90
27534;DHT22;14973;51.460;7.008;2023-04-24T05:58:09;9.20;99.90
27534;DHT22;14973;51.460;7.008;2023-04-24T06:00:35;9.20;99.90
27534;DHT22;14973;51.460;7.008;2023-04-24T06:03:00;9.30;99.90
27534;DHT22;14973;51.460;7.008;2023-04-24T06:05:27;9.20;99.90
27534;DHT22;14973;51.460;7.008;2023-04-24T06:07:53;9.20;99.90
27534;DHT22;14973;51.460;7.008;2023-04-24T06:10:18;9.20;99.90
27534;DHT22;14973;51.460;7.008;2023-04-24T06:12:44;9.30;98.30
27534;DHT22;14973;51.460;7.008;2023-04-24T06:15:10;9.40;93.70
27534;DHT22;14973;51.460;7.008;2023-04-24T06:17:35;9.40;92.80
27534;DHT22;14973;51.460;7.008;2023-04-24T06:20:01;9.50;79.00
27534;DHT22;14973;51.460;7.008;2023-04-24T06:22:26;9.50;75.10
27534;DHT22;14973;51.460;7.008;2023-04-24T06:24:52;9.50;62.70
27534;DHT22;14973;51.460;7.008;2023-04-24T06:27:17;9.50;75.40
27534;DHT22;14973;51.460;7.008;2023-04-24T06:29:43;9.50;81.00
27534;DHT22;14973;51.460;7.008;2023-04-24T06:32:08;9.50;90.50
27534;DHT22;14973;51.460;7.008;2023-04-24T06:34:34;9.50;94.30
27534;DHT22;14973;51.460;7.008;2023-04-24T06:37:00;9.50;99.60
27534;DHT22;14973;51.460;7.008;2023-04-24T06:39:26;9.50;98.20
27534;DHT22;14973;51.460;7.008;2023-04-24T06:41:51;9.50;99.90
27534;DHT22;14973;51.460;7.008;2023-04-24T06:44:17;9.60;99.90
27534;DHT22;14973;51.460;7.008;2023-04-24T06:46:42;9.70;99.90
27534;DHT22;14973;51.460;7.008;2023-04-24T06:49:09;9.70;99.70
27534;DHT22;14973;51.460;7.008;2023-04-24T06:51:35;9.80;96.80
27534;DHT22;14973;51.460;7.008;2023-04-24T06:54:00;9.80;93.20
27534;DHT22;14973;51.460;7.008;2023-04-24T06:56:27;9.90;95.00
27534;DHT22;14973;51.460;7.008;2023-04-24T06:58:54;10.10;68.30
27534;DHT22;14973;51.460;7.008;2023-04-24T07:01:19;10.30;51.40
27534;DHT22;14973;51.460;7.008;2023-04-24T07:03:45;10.30;31.60
27534;DHT22;14973;51.460;7.008;2023-04-24T07:06:10;10.20;29.90
27534;DHT22;14973;51.460;7.008;2023-04-24T07:08:36;10.10;53.30
27534;DHT22;14973;51.460;7.008;2023-04-24T07:11:02;10.00;69.70
27534;DHT22;14973;51.460;7.008;2023-04-24T07:13:28;9.90;81.40
27534;DHT22;14973;51.460;7.008;2023-04-24T07:15:53;9.70;93.60
27534;DHT22;14973;51.460;7.008;2023-04-24T07:18:20;9.80;94.60
27534;DHT22;14973;51.460;7.008;2023-04-24T07:20:46;9.70;94.70
27534;DHT22;14973;51.460;7.008;2023-04-24T07:23:11;9.80;91.50
27534;DHT22;14973;51.460;7.008;2023-04-24T07:25:37;9.80;94.40
27534;DHT22;14973;51.460;7.008;2023-04-24T07:28:03;9.80;93.90
27534;DHT22;14973;51.460;7.008;2023-04-24T07:30:30;9.70;86.90
27534;DHT22;14973;51.460;7.008;2023-04-24T07:32:55;9.70;82.60
27534;DHT22;14973;51.460;7.008;2023-04-24T07:35:21;9.70;82.30
27534;DHT22;14973;51.460;7.008;2023-04-24T07:37:46;9.60;86.70
27534;DHT22;14973;51.460;7.008;2023-04-24T07:40:12;9.60;87.90
27534;DHT22;14973;51.460;7.008;2023-04-24T07:42:38;9.50;92.50
27534;DHT22;14973;51.460;7.008;2023-04-24T07:45:04;9.30;96.10
27534;DHT22;14973;51.460;7.008;2023-04-24T07:47:30;9.20;99.90
27534;DHT22;14973;51.460;7.008;2023-04-24T07:49:56;9.20;99.70
27534;DHT22;14973;51.460;7.008;2023-04-24T07:52:21;9.30;99.90
27534;DHT22;14973;51.460;7.008;2023-04-24T07:54:47;9.60;77.00
27534;DHT22;14973;51.460;7.008;2023-04-24T07:57:12;10.00;49.00
27534;DHT22;14973;51.460;7.008;2023-04-24T07:59:39;10.20;9.80
27534;DHT22;14973;51.460;7.008;2023-04-24T08:02:04;10.10;1.00
27534;DHT22;14973;51.460;7.008;2023-04-24T08:04:31;10.00;1.00
27534;DHT22;14973;51.460;7.008;2023-04-24T08:06:57;9.90;1.00
27534;DHT22;14973;51.460;7.008;2023-04-24T08:09:22;9.60;1.00
27534;DHT22;14973;51.460;7.008;2023-04-24T08:11:48;9.50;4.80
27534;DHT22;14973;51.460;7.008;2023-04-24T08:14:14;9.40;39.80
27534;DHT22;14973;51.460;7.008;2023-04-24T08:16:40;9.30;53.20
27534;DHT22;14973;51.460;7.008;2023-04-24T08:19:05;9.30;55.70
27534;DHT22;14973;51.460;7.008;2023-04-24T08:21:31;9.30;71.70
27534;DHT22;14973;51.460;7.008;2023-04-24T08:23:57;9.30;77.30
27534;DHT22;14973;51.460;7.008;2023-04-24T08:26:23;9.30;85.30
27534;DHT22;14973;51.460;7.008;2023-04-24T08:28:48;9.30;94.90
27534;DHT22;14973;51.460;7.008;2023-04-24T08:31:14;9.20;95.40
27534;DHT22;14973;51.460;7.008;2023-04-24T08:33:40;9.30;94.90
27534;DHT22;14973;51.460;7.008;2023-04-24T08:36:06;9.10;99.90
27534;DHT22;14973;51.460;7.008;2023-04-24T08:38:32;9.00;99.90
27534;DHT22;14973;51.460;7.008;2023-04-24T08:40:58;9.00;99.90
27534;DHT22;14973;51.460;7.008;2023-04-24T08:43:25;8.80;99.90
27534;DHT22;14973;51.460;7.008;2023-04-24T08:45:51;8.70;99.90
27534;DHT22;14973;51.460;7.008;2023-04-24T08:48:17;8.80;99.90
27534;DHT22;14973;51.460;7.008;2023-04-24T08:50:43;8.80;99.90
27534;DHT22;14973;51.460;7.008;2023-04-24T08:53:10;8.80;99.90
27534;DHT22;14973;51.460;7.008;2023-04-24T08:55:35;8.90;99.90
27534;DHT22;14973;51.460;7.008;2023-04-24T08:58:02;8.90;99.90
27534;DHT22;14973;51.460;7.008;2023-04-24T09:00:28;9.00;99.90
27534;DHT22;14973;51.460;7.008;2023-04-24T09:02:54;9.10;99.90
27534;DHT22;14973;51.460;7.008;2023-04-24T09:05:20;9.30;99.90
27534;DHT22;14973;51.460;7.008;2023-04-24T09:07:53;9.50;99.90
27534;DHT22;14973;51.460;7.008;2023-04-24T09:10:20;9.80;99.90
27534;DHT22;14973;51.460;7.008;2023-04-24T09:12:46;9.90;99.90
27534;DHT22;14973;51.460;7.008;2023-04-24T09:15:12;10.10;99.90
27534;DHT22;14973;51.460;7.008;2023-04-24T09:17:38;10.20;99.90
27534;DHT22;14973;51.460;7.008;2023-04-24T09:20:04;10.20;99.90
27534;DHT22;14973;51.460;7.008;2023-04-24T09:22:30;10.10;99.90
27534;DHT22;14973;51.460;7.008;2023-04-24T09:25:05;9.90;99.90
27534;DHT22;14973;51.460;7.008;2023-04-24T09:27:32;9.70;99.90
27534;DHT22;14973;51.460;7.008;2023-04-24T09:29:58;9.60;99.90
27534;DHT22;14973;51.460;7.008;2023-04-24T09:32:24;9.50;99.90
27534;DHT22;14973;51.460;7.008;2023-04-24T09:35:06;9.40;99.90
27534;DHT22;14973;51.460;7.008;2023-04-24T09:37:36;9.20;99.90
27534;DHT22;14973;51.460;7.008;2023-04-24T09:42:43;9.20;99.90
27534;DHT22;14973;51.460;7.008;2023-04-24T09:45:09;9.20;99.90
27534;DHT22;14973;51.460;7.008;2023-04-24T09:47:36;9.10;99.90
27534;DHT22;14973;51.460;7.008;2023-04-24T09:50:11;9.20;99.90
27534;DHT22;14973;51.460;7.008;2023-04-24T09:52:40;9.20;99.90
27534;DHT22;14973;51.460;7.008;2023-04-24T09:55:10;9.10;99.90
27534;DHT22;14973;51.460;7.008;2023-04-24T09:57:40;9.00;99.90
27534;DHT22;14973;51.460;7.008;2023-04-24T10:00:11;9.10;99.90
27534;DHT22;14973;51.460;7.008;2023-04-24T10:02:37;9.00;99.90
27534;DHT22;14973;51.460;7.008;2023-04-24T10:05:03;9.00;99.90
27534;DHT22;14973;51.460;7.008;2023-04-24T10:07:28;9.00;99.90
27534;DHT22;14973;51.460;7.008;2023-04-24T10:09:54;9.10;99.90
27534;DHT22;14973;51.460;7.008;2023-04-24T10:12:19;9.10;99.90
27534;DHT22;14973;51.460;7.008;2023-04-24T10:14:46;9.00;99.90
27534;DHT22;14973;51.460;7.008;2023-04-24T10:17:11;9.00;99.90
27534;DHT22;14973;51.460;7.008;2023-04-24T10:19:37;9.00;99.90
27534;DHT22;14973;51.460;7.008;2023-04-24T10:22:03;9.00;99.90
27534;DHT22;14973;51.460;7.008;2023-04-24T10:24:29;9.10;99.90
27534;DHT22;14973;51.460;7.008;2023-04-24T10:26:55;9.10;99.90
27534;DHT22;14973;51.460;7.008;2023-04-24T10:29:22;9.00;99.90
27534;DHT22;14973;51.460;7.008;2023-04-24T10:31:48;9.00;99.90
27534;DHT22;14973;51.460;7.008;2023-04-24T10:34:14;8.90;99.90
27534;DHT22;14973;51.460;7.008;2023-04-24T10:36:42;9.10;99.90
27534;DHT22;14973;51.460;7.008;2023-04-24T10:39:09;9.10;99.90
27534;DHT22;14973;51.460;7.008;2023-04-24T10:41:37;9.10;99.90
27534;DHT22;14973;51.460;7.008;2023-04-24T10:44:07;9.20;99.90
27534;DHT22;14973;51.460;7.008;2023-04-24T10:46:32;9.40;99.90
27534;DHT22;14973;51.460;7.008;2023-04-24T10:48:58;9.40;99.90
27534;DHT22;14973;51.460;7.008;2023-04-24T10:51:24;9.50;99.90
27534;DHT22;14973;51.460;7.008;2023-04-24T10:53:51;9.40;99.90
27534;DHT22;14973;51.460;7.008;2023-04-24T10:56:16;9.40;99.90
27534;DHT22;14973;51.460;7.008;2023-04-24T10:58:45;9.60;99.90
27534;DHT22;14973;51.460;7.008;2023-04-24T11:03:56;9.70;99.90
27534;DHT22;14973;51.460;7.008;2023-04-24T11:06:28;9.80;99.90
27534;DHT22;14973;51.460;7.008;2023-04-24T11:08:57;10.00;99.90
27534;DHT22;14973;51.460;7.008;2023-04-24T11:11:24;10.00;99.90
27534;DHT22;14973;51.460;7.008;2023-04-24T11:19:04;9.80;99.90
27534;DHT22;14973;51.460;7.008;2023-04-24T11:21:31;10.10;92.80
27534;DHT22;14973;51.460;7.008;2023-04-24T11:23:57;10.50;86.60
27534;DHT22;14973;51.460;7.008;2023-04-24T11:26:23;10.90;57.90
27534;DHT22;14973;51.460;7.008;2023-04-24T11:28:55;11.20;14.60
27534;DHT22;14973;51.460;7.008;2023-04-24T11:31:38;11.50;1.00
27534;DHT22;14973;51.460;7.008;2023-04-24T11:34:12;11.50;1.00
27534;DHT22;14973;51.460;7.008;2023-04-24T11:36:39;11.40;1.00
27534;DHT22;14973;51.460;7.008;2023-04-24T11:39:05;11.30;1.00
27534;DHT22;14973;51.460;7.008;2023-04-24T11:41:31;11.00;3.30
27534;DHT22;14973;51.460;7.008;2023-04-24T11:43:57;10.80;20.40
27534;DHT22;14973;51.460;7.008;2023-04-24T11:46:23;10.60;1.00
27534;DHT22;14973;51.460;7.008;2023-04-24T11:48:48;10.40;1.00
27534;DHT22;14973;51.460;7.008;2023-04-24T11:51:14;10.10;1.00
27534;DHT22;14973;51.460;7.008;2023-04-24T11:53:39;9.90;1.00
27534;DHT22;14973;51.460;7.008;2023-04-24T11:56:05;9.90;1.00
27534;DHT22;14973;51.460;7.008;2023-04-24T11:58:40;9.80;1.00
27534;DHT22;14973;51.460;7.008;2023-04-24T12:01:05;10.00;1.00
27534;DHT22;14973;51.460;7.008;2023-04-24T12:03:31;10.20;1.00
27534;DHT22;14973;51.460;7.008;2023-04-24T12:06:06;10.60;1.00
27534;DHT22;14973;51.460;7.008;2023-04-24T12:08:33;11.00;1.00
27534;DHT22;14973;51.460;7.008;2023-04-24T12:10:59;11.50;99.90
27534;DHT22;14973;51.460;7.008;2023-04-24T12:13:25;11.50;99.90
27534;DHT22;14973;51.460;7.008;2023-04-24T12:15:51;11.60;1.00
27534;DHT22;14973;51.460;7.008;2023-04-24T12:18:16;11.60;99.90
27534;DHT22;14973;51.460;7.008;2023-04-24T12:20:42;11.80;99.90
27534;DHT22;14973;51.460;7.008;2023-04-24T12:23:07;12.00;99.90
27534;DHT22;14973;51.460;7.008;2023-04-24T12:25:33;12.20;1.00
27534;DHT22;14973;51.460;7.008;2023-04-24T12:30:31;11.60;99.90
27534;DHT22;14973;51.460;7.008;2023-04-24T12:32:57;11.40;1.00
27534;DHT22;14973;51.460;7.008;2023-04-24T12:35:23;11.20;99.90
27534;DHT22;14973;51.460;7.008;2023-04-24T12:37:49;11.10;99.90
27534;DHT22;14973;51.460;7.008;2023-04-24T12:40:17;11.10;99.90
27534;DHT22;14973;51.460;7.008;2023-04-24T12:42:44;11.10;99.90
27534;DHT22;14973;51.460;7.008;2023-04-24T12:45:09;11.00;99.90
27534;DHT22;14973;51.460;7.008;2023-04-24T12:47:37;11.00;99.90
27534;DHT22;14973;51.460;7.008;2023-04-24T12:50:03;11.00;1.00
27534;DHT22;14973;51.460;7.008;2023-04-24T12:52:29;11.00;1.00
27534;DHT22;14973;51.460;7.008;2023-04-24T12:54:56;11.20;42.70
27534;DHT22;14973;51.460;7.008;2023-04-24T12:57:22;11.20;1.00
27534;DHT22;14973;51.460;7.008;2023-04-24T12:59:48;11.30;99.90
27534;DHT22;14973;51.460;7.008;2023-04-24T13:02:14;11.70;1.00
27534;DHT22;14973;51.460;7.008;2023-04-24T13:04:46;11.90;20.50
27534;DHT22;14973;51.460;7.008;2023-04-24T13:07:12;12.00;1.00
27534;DHT22;14973;51.460;7.008;2023-04-24T13:09:39;12.10;99.90
27534;DHT22;14973;51.460;7.008;2023-04-24T13:12:04;12.10;99.90
27534;DHT22;14973;51.460;7.008;2023-04-24T13:14:33;12.00;99.90
27534;DHT22;14973;51.460;7.008;2023-04-24T13:16:59;12.10;99.90
27534;DHT22;14973;51.460;7.008;2023-04-24T13:19:25;12.30;99.90
27534;DHT22;14973;51.460;7.008;2023-04-24T13:21:51;12.40;99.90
27534;DHT22;14973;51.460;7.008;2023-04-24T13:24:17;12.50;99.90
27534;DHT22;14973;51.460;7.008;2023-04-24T13:26:43;12.40;99.90
27534;DHT22;14973;51.460;7.008;2023-04-24T13:29:08;12.30;99.90
27534;DHT22;14973;51.460;7.008;2023-04-24T13:31:34;12.00;99.90
27534;DHT22;14973;51.460;7.008;2023-04-24T13:34:00;12.00;99.90
27534;DHT22;14973;51.460;7.008;2023-04-24T13:36:26;12.10;99.90
27534;DHT22;14973;51.460;7.008;2023-04-24T13:38:52;12.00;99.90
27534;DHT22;14973;51.460;7.008;2023-04-24T13:41:17;12.10;99.90
27534;DHT22;14973;51.460;7.008;2023-04-24T13:43:43;12.30;99.90
27534;DHT22;14973;51.460;7.008;2023-04-24T13:46:08;12.10;99.90
27534;DHT22;14973;51.460;7.008;2023-04-24T13:48:34;12.20;99.90
27534;DHT22;14973;51.460;7.008;2023-04-24T13:51:00;12.10;99.90
27534;DHT22;14973;51.460;7.008;2023-04-24T13:53:25;11.80;99.90
27534;DHT22;14973;51.460;7.008;2023-04-24T13:55:51;11.80;99.90
27534;DHT22;14973;51.460;7.008;2023-04-24T13:58:17;11.80;99.90
27534;DHT22;14973;51.460;7.008;2023-04-24T14:00:42;11.70;99.90
27534;DHT22;14973;51.460;7.008;2023-04-24T14:03:08;11.90;99.90
27534;DHT22;14973;51.460;7.008;2023-04-24T14:05:33;12.10;99.90
27534;DHT22;14973;51.460;7.008;2023-04-24T14:07:59;12.20;99.90
27534;DHT22;14973;51.460;7.008;2023-04-24T14:10:25;12.30;99.90
27534;DHT22;14973;51.460;7.008;2023-04-24T14:12:52;12.40;99.90
27534;DHT22;14973;51.460;7.008;2023-04-24T14:15:18;12.50;99.90
27534;DHT22;14973;51.460;7.008;2023-04-24T14:17:44;12.30;99.90
27534;DHT22;14973;51.460;7.008;2023-04-24T14:20:09;12.40;99.90
27534;DHT22;14973;51.460;7.008;2023-04-24T14:22:35;12.60;99.90
27534;DHT22;14973;51.460;7.008;2023-04-24T14:25:00;12.70;99.90
27534;DHT22;14973;51.460;7.008;2023-04-24T14:27:26;12.70;38.60
27534;DHT22;14973;51.460;7.008;2023-04-24T14:29:52;12.70;33.60
27534;DHT22;14973;51.460;7.008;2023-04-24T14:32:17;12.60;44.20
27534;DHT22;14973;51.460;7.008;2023-04-24T14:34:43;12.70;39.30
27534;DHT22;14973;51.460;7.008;2023-04-24T14:37:08;12.70;30.90
27534;DHT22;14973;51.460;7.008;2023-04-24T14:39:34;12.60;9.90
27534;DHT22;14973;51.460;7.008;2023-04-24T14:42:00;12.40;9.00
27534;DHT22;14973;51.460;7.008;2023-04-24T14:44:26;12.20;26.70
27534;DHT22;14973;51.460;7.008;2023-04-24T14:46:51;12.00;76.70
27534;DHT22;14973;51.460;7.008;2023-04-24T14:49:19;11.90;99.90
27534;DHT22;14973;51.460;7.008;2023-04-24T14:51:44;11.70;99.90
27534;DHT22;14973;51.460;7.008;2023-04-24T14:54:10;11.50;99.90
27534;DHT22;14973;51.460;7.008;2023-04-24T14:56:36;11.20;99.90
27534;DHT22;14973;51.460;7.008;2023-04-24T14:59:02;11.00;99.90
27534;DHT22;14973;51.460;7.008;2023-04-24T15:01:27;10.90;99.90
27534;DHT22;14973;51.460;7.008;2023-04-24T15:03:53;10.80;99.90
27534;DHT22;14973;51.460;7.008;2023-04-24T15:06:18;10.80;99.90
27534;DHT22;14973;51.460;7.008;2023-04-24T15:08:45;10.80;99.90
27534;DHT22;14973;51.460;7.008;2023-04-24T15:11:11;11.00;99.90
27534;DHT22;14973;51.460;7.008;2023-04-24T15:13:36;11.10;99.90
27534;DHT22;14973;51.460;7.008;2023-04-24T15:16:02;11.30;99.90
27534;DHT22;14973;51.460;7.008;2023-04-24T15:18:27;11.40;1.00
27534;DHT22;14973;51.460;7.008;2023-04-24T15:20:54;11.30;99.90
27534;DHT22;14973;51.460;7.008;2023-04-24T15:23:20;11.40;1.00
27534;DHT22;14973;51.460;7.008;2023-04-24T15:25:46;11.50;1.00
27534;DHT22;14973;51.460;7.008;2023-04-24T15:28:11;11.60;1.00
27534;DHT22;14973;51.460;7.008;2023-04-24T15:30:37;11.70;99.90
27534;DHT22;14973;51.460;7.008;2023-04-24T15:33:02;12.00;99.90
27534;DHT22;14973;51.460;7.008;2023-04-24T15:35:28;12.20;42.20
27534;DHT22;14973;51.460;7.008;2023-04-24T15:37:54;11.90;1.00
27534;DHT22;14973;51.460;7.008;2023-04-24T15:40:20;11.80;57.60
27534;DHT22;14973;51.460;7.008;2023-04-24T15:42:45;11.80;99.90
27534;DHT22;14973;51.460;7.008;2023-04-24T15:45:11;12.00;1.00
27534;DHT22;14973;51.460;7.008;2023-04-24T15:47:37;12.20;99.90